sensor_id;sensor_type;location;lat;lon;timestamp;P1;durP1;ratioP1;P2;durP2;ratioP2
78430;SDS011;67727;50.236;22.452;2023-08-06T00:02:26;20.90;;;12.70;;
78430;SDS011;67727;50.236;22.452;2023-08-06T00:04:53;18.40;;;12.00;;
78430;SDS011;67727;50.236;22.452;2023-08-06T00:07:19;22.30;;;12.70;;
78430;SDS011;67727;50.236;22.452;2023-08-06T00:09:46;15.10;;;11.30;;
78430;SDS011;67727;50.236;22.452;2023-08-06T00:12:13;18.50;;;11.90;;
78430;SDS011;67727;50.236;22.452;2023-08-06T00:14:40;23.30;;;11.90;;
78430;SDS011;67727;50.236;22.452;2023-08-06T00:17:07;17.50;;;11.60;;
78430;SDS011;67727;50.236;22.452;2023-08-06T00:19:33;16.90;;;11.10;;
78430;SDS011;67727;50.236;22.452;2023-08-06T00:22:00;15.70;;;11.80;;
78430;SDS011;67727;50.236;22.452;2023-08-06T00:24:28;20.20;;;11.40;;
78430;SDS011;67727;50.236;22.452;2023-08-06T00:26:55;19.00;;;10.70;;
78430;SDS011;67727;50.236;22.452;2023-08-06T00:29:21;14.00;;;10.10;;
78430;SDS011;67727;50.236;22.452;2023-08-06T00:31:48;16.60;;;8.80;;
78430;SDS011;67727;50.236;22.452;2023-08-06T00:34:15;13.20;;;9.50;;
78430;SDS011;67727;50.236;22.452;2023-08-06T00:36:42;15.80;;;10.00;;
78430;SDS011;67727;50.236;22.452;2023-08-06T00:39:09;14.10;;;9.80;;
78430;SDS011;67727;50.236;22.452;2023-08-06T00:41:36;21.20;;;10.90;;
78430;SDS011;67727;50.236;22.452;2023-08-06T00:44:03;17.20;;;10.30;;
78430;SDS011;67727;50.236;22.452;2023-08-06T00:46:31;17.20;;;10.90;;
78430;SDS011;67727;50.236;22.452;2023-08-06T00:48:59;18.10;;;11.10;;
78430;SDS011;67727;50.236;22.452;2023-08-06T00:53:53;14.40;;;10.30;;
78430;SDS011;67727;50.236;22.452;2023-08-06T00:56:21;13.10;;;8.90;;
78430;SDS011;67727;50.236;22.452;2023-08-06T00:58:48;14.20;;;9.70;;
78430;SDS011;67727;50.236;22.452;2023-08-06T01:01:15;16.30;;;9.20;;
78430;SDS011;67727;50.236;22.452;2023-08-06T01:03:41;12.90;;;9.80;;
78430;SDS011;67727;50.236;22.452;2023-08-06T01:06:08;15.00;;;9.30;;
78430;SDS011;67727;50.236;22.452;2023-08-06T01:13:41;14.50;;;9.30;;
78430;SDS011;67727;50.236;22.452;2023-08-06T01:16:16;14.60;;;9.00;;
78430;SDS011;67727;50.236;22.452;2023-08-06T01:18:44;14.40;;;9.10;;
78430;SDS011;67727;50.236;22.452;2023-08-06T01:21:16;13.10;;;8.60;;
78430;SDS011;67727;50.236;22.452;2023-08-06T01:23:43;19.60;;;10.60;;
78430;SDS011;67727;50.236;22.452;2023-08-06T01:28:48;15.30;;;10.30;;
78430;SDS011;67727;50.236;22.452;2023-08-06T01:31:18;15.00;;;8.60;;
78430;SDS011;67727;50.236;22.452;2023-08-06T01:33:53;12.10;;;9.30;;
78430;SDS011;67727;50.236;22.452;2023-08-06T01:36:22;12.80;;;9.30;;
78430;SDS011;67727;50.236;22.452;2023-08-06T01:38:51;14.40;;;9.20;;
78430;SDS011;67727;50.236;22.452;2023-08-06T01:41:19;12.30;;;7.70;;
78430;SDS011;67727;50.236;22.452;2023-08-06T01:43:46;13.50;;;9.60;;
78430;SDS011;67727;50.236;22.452;2023-08-06T01:46:12;17.80;;;10.60;;
78430;SDS011;67727;50.236;22.452;2023-08-06T01:48:39;16.90;;;10.90;;
78430;SDS011;67727;50.236;22.452;2023-08-06T01:51:06;16.50;;;11.50;;
78430;SDS011;67727;50.236;22.452;2023-08-06T01:56:00;15.80;;;11.40;;
78430;SDS011;67727;50.236;22.452;2023-08-06T01:58:27;16.30;;;10.60;;
78430;SDS011;67727;50.236;22.452;2023-08-06T02:00:54;17.20;;;11.50;;
78430;SDS011;67727;50.236;22.452;2023-08-06T02:03:21;17.60;;;11.70;;
78430;SDS011;67727;50.236;22.452;2023-08-06T02:05:48;18.00;;;11.00;;
78430;SDS011;67727;50.236;22.452;2023-08-06T02:08:14;18.20;;;10.70;;
78430;SDS011;67727;50.236;22.452;2023-08-06T02:10:41;15.90;;;11.20;;
78430;SDS011;67727;50.236;22.452;2023-08-06T02:13:08;21.50;;;12.70;;
78430;SDS011;67727;50.236;22.452;2023-08-06T02:15:35;22.00;;;13.80;;
78430;SDS011;67727;50.236;22.452;2023-08-06T02:18:01;25.80;;;13.20;;
78430;SDS011;67727;50.236;22.452;2023-08-06T02:20:28;20.40;;;13.00;;
78430;SDS011;67727;50.236;22.452;2023-08-06T02:25:22;26.70;;;15.20;;
78430;SDS011;67727;50.236;22.452;2023-08-06T02:27:49;20.50;;;12.90;;
78430;SDS011;67727;50.236;22.452;2023-08-06T02:30:16;18.70;;;12.50;;
78430;SDS011;67727;50.236;22.452;2023-08-06T02:32:42;17.00;;;10.90;;
78430;SDS011;67727;50.236;22.452;2023-08-06T02:35:09;16.10;;;10.70;;
78430;SDS011;67727;50.236;22.452;2023-08-06T02:37:36;16.90;;;11.30;;
78430;SDS011;67727;50.236;22.452;2023-08-06T02:40:03;16.20;;;11.20;;
78430;SDS011;67727;50.236;22.452;2023-08-06T02:44:57;14.90;;;11.00;;
78430;SDS011;67727;50.236;22.452;2023-08-06T02:47:24;12.70;;;10.60;;
78430;SDS011;67727;50.236;22.452;2023-08-06T02:49:51;13.60;;;10.30;;
78430;SDS011;67727;50.236;22.452;2023-08-06T02:52:18;15.90;;;10.80;;
78430;SDS011;67727;50.236;22.452;2023-08-06T02:54:45;14.80;;;10.10;;
78430;SDS011;67727;50.236;22.452;2023-08-06T02:57:12;15.80;;;11.50;;
78430;SDS011;67727;50.236;22.452;2023-08-06T02:59:39;14.60;;;10.10;;
78430;SDS011;67727;50.236;22.452;2023-08-06T03:02:05;16.40;;;9.50;;
78430;SDS011;67727;50.236;22.452;2023-08-06T03:04:32;17.90;;;10.50;;
78430;SDS011;67727;50.236;22.452;2023-08-06T03:06:59;14.50;;;10.60;;
78430;SDS011;67727;50.236;22.452;2023-08-06T03:09:25;16.60;;;10.00;;
78430;SDS011;67727;50.236;22.452;2023-08-06T03:11:52;18.50;;;10.80;;
78430;SDS011;67727;50.236;22.452;2023-08-06T03:14:19;21.70;;;11.80;;
78430;SDS011;67727;50.236;22.452;2023-08-06T03:16:46;18.60;;;12.70;;
78430;SDS011;67727;50.236;22.452;2023-08-06T03:19:12;17.60;;;10.90;;
78430;SDS011;67727;50.236;22.452;2023-08-06T03:21:39;14.20;;;10.40;;
78430;SDS011;67727;50.236;22.452;2023-08-06T03:24:06;15.50;;;10.70;;
78430;SDS011;67727;50.236;22.452;2023-08-06T03:26:33;16.00;;;10.50;;
78430;SDS011;67727;50.236;22.452;2023-08-06T03:28:59;13.50;;;10.30;;
78430;SDS011;67727;50.236;22.452;2023-08-06T03:31:26;13.60;;;10.10;;
78430;SDS011;67727;50.236;22.452;2023-08-06T03:33:53;14.90;;;10.40;;
78430;SDS011;67727;50.236;22.452;2023-08-06T03:36:20;13.70;;;10.10;;
78430;SDS011;67727;50.236;22.452;2023-08-06T03:38:47;13.90;;;10.50;;
78430;SDS011;67727;50.236;22.452;2023-08-06T03:41:14;13.00;;;9.70;;
78430;SDS011;67727;50.236;22.452;2023-08-06T03:43:40;15.10;;;10.50;;
78430;SDS011;67727;50.236;22.452;2023-08-06T03:46:07;16.70;;;11.30;;
78430;SDS011;67727;50.236;22.452;2023-08-06T03:48:34;15.70;;;10.10;;
78430;SDS011;67727;50.236;22.452;2023-08-06T03:51:01;16.20;;;10.30;;
78430;SDS011;67727;50.236;22.452;2023-08-06T03:53:28;14.80;;;10.10;;
78430;SDS011;67727;50.236;22.452;2023-08-06T03:55:55;13.10;;;10.10;;
78430;SDS011;67727;50.236;22.452;2023-08-06T03:58:26;13.60;;;9.70;;
78430;SDS011;67727;50.236;22.452;2023-08-06T04:01:02;15.70;;;10.20;;
78430;SDS011;67727;50.236;22.452;2023-08-06T04:03:30;12.90;;;9.90;;
78430;SDS011;67727;50.236;22.452;2023-08-06T04:05:57;16.50;;;10.00;;
78430;SDS011;67727;50.236;22.452;2023-08-06T04:08:23;15.90;;;10.40;;
78430;SDS011;67727;50.236;22.452;2023-08-06T04:10:53;19.20;;;10.50;;
78430;SDS011;67727;50.236;22.452;2023-08-06T04:13:20;15.90;;;11.10;;
78430;SDS011;67727;50.236;22.452;2023-08-06T04:15:47;17.70;;;11.00;;
78430;SDS011;67727;50.236;22.452;2023-08-06T04:20:44;15.90;;;10.70;;
78430;SDS011;67727;50.236;22.452;2023-08-06T04:23:12;15.20;;;11.30;;
78430;SDS011;67727;50.236;22.452;2023-08-06T04:28:06;15.70;;;11.40;;
78430;SDS011;67727;50.236;22.452;2023-08-06T04:30:33;16.70;;;11.40;;
78430;SDS011;67727;50.236;22.452;2023-08-06T04:35:27;16.40;;;11.00;;
78430;SDS011;67727;50.236;22.452;2023-08-06T04:37:53;14.70;;;11.10;;
78430;SDS011;67727;50.236;22.452;2023-08-06T04:40:20;15.30;;;11.90;;
78430;SDS011;67727;50.236;22.452;2023-08-06T04:42:47;15.50;;;11.90;;
78430;SDS011;67727;50.236;22.452;2023-08-06T04:45:14;17.20;;;12.40;;
78430;SDS011;67727;50.236;22.452;2023-08-06T04:47:40;17.00;;;11.80;;
78430;SDS011;67727;50.236;22.452;2023-08-06T04:50:07;15.00;;;11.20;;
78430;SDS011;67727;50.236;22.452;2023-08-06T04:55:01;14.90;;;10.80;;
78430;SDS011;67727;50.236;22.452;2023-08-06T04:57:28;15.00;;;11.10;;
78430;SDS011;67727;50.236;22.452;2023-08-06T04:59:55;16.20;;;12.20;;
78430;SDS011;67727;50.236;22.452;2023-08-06T05:02:21;18.60;;;12.40;;
78430;SDS011;67727;50.236;22.452;2023-08-06T05:04:48;17.20;;;12.60;;
78430;SDS011;67727;50.236;22.452;2023-08-06T05:07:15;18.80;;;10.00;;
78430;SDS011;67727;50.236;22.452;2023-08-06T05:09:42;17.40;;;10.70;;
78430;SDS011;67727;50.236;22.452;2023-08-06T05:12:09;16.20;;;10.30;;
78430;SDS011;67727;50.236;22.452;2023-08-06T05:14:36;12.90;;;9.40;;
78430;SDS011;67727;50.236;22.452;2023-08-06T05:17:03;21.40;;;11.10;;
78430;SDS011;67727;50.236;22.452;2023-08-06T05:19:31;19.60;;;11.00;;
78430;SDS011;67727;50.236;22.452;2023-08-06T05:21:58;19.80;;;10.20;;
78430;SDS011;67727;50.236;22.452;2023-08-06T05:26:52;15.60;;;9.50;;
78430;SDS011;67727;50.236;22.452;2023-08-06T05:29:18;15.40;;;9.70;;
78430;SDS011;67727;50.236;22.452;2023-08-06T05:31:45;20.20;;;10.30;;
78430;SDS011;67727;50.236;22.452;2023-08-06T05:34:12;14.00;;;8.80;;
78430;SDS011;67727;50.236;22.452;2023-08-06T05:36:39;15.00;;;8.60;;
78430;SDS011;67727;50.236;22.452;2023-08-06T05:39:06;12.10;;;8.20;;
78430;SDS011;67727;50.236;22.452;2023-08-06T05:41:32;11.70;;;8.60;;
78430;SDS011;67727;50.236;22.452;2023-08-06T05:43:59;13.60;;;8.20;;
78430;SDS011;67727;50.236;22.452;2023-08-06T05:46:26;16.60;;;9.50;;
78430;SDS011;67727;50.236;22.452;2023-08-06T05:48:53;17.00;;;8.60;;
78430;SDS011;67727;50.236;22.452;2023-08-06T05:51:20;13.30;;;8.60;;
78430;SDS011;67727;50.236;22.452;2023-08-06T05:53:47;13.00;;;8.60;;
78430;SDS011;67727;50.236;22.452;2023-08-06T05:56:15;16.30;;;8.60;;
78430;SDS011;67727;50.236;22.452;2023-08-06T05:58:42;13.00;;;7.60;;
78430;SDS011;67727;50.236;22.452;2023-08-06T06:01:09;11.60;;;7.40;;
78430;SDS011;67727;50.236;22.452;2023-08-06T06:03:36;10.30;;;7.30;;
78430;SDS011;67727;50.236;22.452;2023-08-06T06:06:02;11.20;;;7.50;;
78430;SDS011;67727;50.236;22.452;2023-08-06T06:08:30;10.70;;;6.70;;
78430;SDS011;67727;50.236;22.452;2023-08-06T06:10:56;11.90;;;7.50;;
78430;SDS011;67727;50.236;22.452;2023-08-06T06:13:24;15.90;;;8.40;;
78430;SDS011;67727;50.236;22.452;2023-08-06T06:15:54;13.40;;;6.60;;
78430;SDS011;67727;50.236;22.452;2023-08-06T06:18:22;12.20;;;7.80;;
78430;SDS011;67727;50.236;22.452;2023-08-06T06:20:49;11.60;;;7.80;;
78430;SDS011;67727;50.236;22.452;2023-08-06T06:23:16;15.90;;;7.70;;
78430;SDS011;67727;50.236;22.452;2023-08-06T06:25:43;8.80;;;7.20;;
78430;SDS011;67727;50.236;22.452;2023-08-06T06:28:13;12.90;;;7.70;;
78430;SDS011;67727;50.236;22.452;2023-08-06T06:30:41;12.00;;;6.80;;
78430;SDS011;67727;50.236;22.452;2023-08-06T06:33:08;13.00;;;7.20;;
78430;SDS011;67727;50.236;22.452;2023-08-06T06:38:01;9.50;;;6.80;;
78430;SDS011;67727;50.236;22.452;2023-08-06T06:40:29;9.40;;;7.20;;
78430;SDS011;67727;50.236;22.452;2023-08-06T06:42:56;10.20;;;6.50;;
78430;SDS011;67727;50.236;22.452;2023-08-06T06:45:23;7.90;;;7.00;;
78430;SDS011;67727;50.236;22.452;2023-08-06T06:47:50;9.70;;;7.10;;
78430;SDS011;67727;50.236;22.452;2023-08-06T06:50:16;10.40;;;7.20;;
78430;SDS011;67727;50.236;22.452;2023-08-06T06:52:43;12.60;;;7.20;;
78430;SDS011;67727;50.236;22.452;2023-08-06T06:55:10;9.20;;;6.60;;
78430;SDS011;67727;50.236;22.452;2023-08-06T06:57:37;15.10;;;7.00;;
78430;SDS011;67727;50.236;22.452;2023-08-06T07:00:04;14.80;;;7.60;;
78430;SDS011;67727;50.236;22.452;2023-08-06T07:02:32;9.70;;;7.10;;
78430;SDS011;67727;50.236;22.452;2023-08-06T07:04:59;10.50;;;7.90;;
78430;SDS011;67727;50.236;22.452;2023-08-06T07:07:26;11.10;;;7.90;;
78430;SDS011;67727;50.236;22.452;2023-08-06T07:09:53;15.60;;;7.30;;
78430;SDS011;67727;50.236;22.452;2023-08-06T07:14:48;11.90;;;7.30;;
78430;SDS011;67727;50.236;22.452;2023-08-06T07:17:15;11.40;;;7.30;;
78430;SDS011;67727;50.236;22.452;2023-08-06T07:22:08;8.30;;;6.80;;
78430;SDS011;67727;50.236;22.452;2023-08-06T07:24:36;13.80;;;6.60;;
78430;SDS011;67727;50.236;22.452;2023-08-06T07:27:03;8.00;;;6.90;;
78430;SDS011;67727;50.236;22.452;2023-08-06T07:29:30;12.10;;;6.50;;
78430;SDS011;67727;50.236;22.452;2023-08-06T07:31:57;11.10;;;7.00;;
78430;SDS011;67727;50.236;22.452;2023-08-06T07:34:24;9.70;;;7.10;;
78430;SDS011;67727;50.236;22.452;2023-08-06T07:36:51;9.00;;;7.10;;
78430;SDS011;67727;50.236;22.452;2023-08-06T07:39:32;7.40;;;6.10;;
78430;SDS011;67727;50.236;22.452;2023-08-06T07:41:59;7.90;;;6.40;;
78430;SDS011;67727;50.236;22.452;2023-08-06T07:44:28;7.80;;;6.00;;
78430;SDS011;67727;50.236;22.452;2023-08-06T07:46:56;10.10;;;6.70;;
78430;SDS011;67727;50.236;22.452;2023-08-06T07:49:23;11.60;;;6.60;;
78430;SDS011;67727;50.236;22.452;2023-08-06T07:51:50;9.20;;;6.30;;
78430;SDS011;67727;50.236;22.452;2023-08-06T07:54:18;7.70;;;6.50;;
78430;SDS011;67727;50.236;22.452;2023-08-06T07:56:45;10.40;;;6.20;;
78430;SDS011;67727;50.236;22.452;2023-08-06T07:59:12;7.70;;;6.60;;
78430;SDS011;67727;50.236;22.452;2023-08-06T08:04:05;9.10;;;6.60;;
78430;SDS011;67727;50.236;22.452;2023-08-06T08:06:33;10.50;;;6.20;;
78430;SDS011;67727;50.236;22.452;2023-08-06T08:09:00;7.80;;;5.50;;
78430;SDS011;67727;50.236;22.452;2023-08-06T08:11:27;10.00;;;6.40;;
78430;SDS011;67727;50.236;22.452;2023-08-06T08:13:54;12.90;;;6.40;;
78430;SDS011;67727;50.236;22.452;2023-08-06T08:18:47;9.00;;;5.50;;
78430;SDS011;67727;50.236;22.452;2023-08-06T08:21:14;10.50;;;5.40;;
78430;SDS011;67727;50.236;22.452;2023-08-06T08:23:41;11.70;;;5.90;;
78430;SDS011;67727;50.236;22.452;2023-08-06T08:26:10;6.50;;;5.80;;
78430;SDS011;67727;50.236;22.452;2023-08-06T08:31:07;8.20;;;5.90;;
78430;SDS011;67727;50.236;22.452;2023-08-06T08:33:35;9.10;;;5.80;;
78430;SDS011;67727;50.236;22.452;2023-08-06T08:36:03;8.90;;;5.70;;
78430;SDS011;67727;50.236;22.452;2023-08-06T08:38:30;8.70;;;5.50;;
78430;SDS011;67727;50.236;22.452;2023-08-06T08:40:57;9.10;;;5.70;;
78430;SDS011;67727;50.236;22.452;2023-08-06T08:43:24;14.00;;;6.10;;
78430;SDS011;67727;50.236;22.452;2023-08-06T08:45:51;9.20;;;5.80;;
78430;SDS011;67727;50.236;22.452;2023-08-06T08:48:23;11.40;;;5.70;;
78430;SDS011;67727;50.236;22.452;2023-08-06T08:50:50;7.10;;;5.20;;
78430;SDS011;67727;50.236;22.452;2023-08-06T08:53:19;8.60;;;5.30;;
78430;SDS011;67727;50.236;22.452;2023-08-06T08:55:50;7.50;;;5.30;;
78430;SDS011;67727;50.236;22.452;2023-08-06T08:58:19;10.40;;;5.10;;
78430;SDS011;67727;50.236;22.452;2023-08-06T09:00:46;10.20;;;5.40;;
78430;SDS011;67727;50.236;22.452;2023-08-06T09:03:17;6.70;;;5.30;;
78430;SDS011;67727;50.236;22.452;2023-08-06T09:05:45;7.20;;;5.60;;
78430;SDS011;67727;50.236;22.452;2023-08-06T09:08:20;9.60;;;5.60;;
78430;SDS011;67727;50.236;22.452;2023-08-06T09:10:50;7.20;;;5.20;;
78430;SDS011;67727;50.236;22.452;2023-08-06T09:13:18;8.10;;;5.40;;
78430;SDS011;67727;50.236;22.452;2023-08-06T09:15:47;7.50;;;5.50;;
78430;SDS011;67727;50.236;22.452;2023-08-06T09:18:24;7.60;;;5.40;;
78430;SDS011;67727;50.236;22.452;2023-08-06T09:20:52;8.50;;;5.40;;
78430;SDS011;67727;50.236;22.452;2023-08-06T09:23:19;8.20;;;5.90;;
78430;SDS011;67727;50.236;22.452;2023-08-06T09:25:46;9.80;;;5.40;;
78430;SDS011;67727;50.236;22.452;2023-08-06T09:28:13;7.60;;;5.50;;
78430;SDS011;67727;50.236;22.452;2023-08-06T09:30:40;8.20;;;5.30;;
78430;SDS011;67727;50.236;22.452;2023-08-06T09:35:37;10.30;;;6.30;;
78430;SDS011;67727;50.236;22.452;2023-08-06T09:38:07;6.90;;;5.10;;
78430;SDS011;67727;50.236;22.452;2023-08-06T09:40:37;7.30;;;5.60;;
78430;SDS011;67727;50.236;22.452;2023-08-06T09:43:05;8.10;;;5.40;;
78430;SDS011;67727;50.236;22.452;2023-08-06T09:45:32;8.40;;;5.60;;
78430;SDS011;67727;50.236;22.452;2023-08-06T09:48:07;6.70;;;5.30;;
78430;SDS011;67727;50.236;22.452;2023-08-06T09:50:36;10.30;;;5.40;;
78430;SDS011;67727;50.236;22.452;2023-08-06T09:53:04;8.80;;;5.80;;
78430;SDS011;67727;50.236;22.452;2023-08-06T09:55:32;7.50;;;5.50;;
78430;SDS011;67727;50.236;22.452;2023-08-06T09:58:00;6.70;;;5.50;;
78430;SDS011;67727;50.236;22.452;2023-08-06T10:00:27;10.60;;;5.90;;
78430;SDS011;67727;50.236;22.452;2023-08-06T10:02:55;7.10;;;6.30;;
78430;SDS011;67727;50.236;22.452;2023-08-06T10:05:27;10.80;;;5.80;;
78430;SDS011;67727;50.236;22.452;2023-08-06T10:07:55;10.10;;;5.60;;
78430;SDS011;67727;50.236;22.452;2023-08-06T10:10:24;8.20;;;5.60;;
78430;SDS011;67727;50.236;22.452;2023-08-06T10:12:54;6.60;;;5.90;;
78430;SDS011;67727;50.236;22.452;2023-08-06T10:15:26;13.50;;;5.80;;
78430;SDS011;67727;50.236;22.452;2023-08-06T10:20:24;8.20;;;5.50;;
78430;SDS011;67727;50.236;22.452;2023-08-06T10:23:03;6.90;;;5.30;;
78430;SDS011;67727;50.236;22.452;2023-08-06T10:25:32;9.00;;;5.80;;
78430;SDS011;67727;50.236;22.452;2023-08-06T10:28:06;7.80;;;5.70;;
78430;SDS011;67727;50.236;22.452;2023-08-06T10:30:43;7.50;;;5.40;;
78430;SDS011;67727;50.236;22.452;2023-08-06T10:33:11;15.60;;;6.00;;
78430;SDS011;67727;50.236;22.452;2023-08-06T10:35:42;17.20;;;6.90;;
78430;SDS011;67727;50.236;22.452;2023-08-06T10:38:11;14.30;;;6.80;;
78430;SDS011;67727;50.236;22.452;2023-08-06T10:43:25;9.50;;;6.10;;
78430;SDS011;67727;50.236;22.452;2023-08-06T10:45:54;10.60;;;6.40;;
78430;SDS011;67727;50.236;22.452;2023-08-06T10:48:35;8.10;;;6.10;;
78430;SDS011;67727;50.236;22.452;2023-08-06T10:51:03;9.60;;;6.50;;
78430;SDS011;67727;50.236;22.452;2023-08-06T10:53:34;6.60;;;5.70;;
78430;SDS011;67727;50.236;22.452;2023-08-06T10:56:01;7.20;;;5.30;;
78430;SDS011;67727;50.236;22.452;2023-08-06T10:58:32;9.00;;;5.10;;
78430;SDS011;67727;50.236;22.452;2023-08-06T11:01:00;8.60;;;5.10;;
78430;SDS011;67727;50.236;22.452;2023-08-06T11:03:27;5.50;;;4.90;;
78430;SDS011;67727;50.236;22.452;2023-08-06T11:05:54;7.10;;;4.60;;
78430;SDS011;67727;50.236;22.452;2023-08-06T11:08:28;5.50;;;4.30;;
78430;SDS011;67727;50.236;22.452;2023-08-06T11:10:55;5.90;;;4.60;;
78430;SDS011;67727;50.236;22.452;2023-08-06T11:13:41;5.50;;;4.40;;
78430;SDS011;67727;50.236;22.452;2023-08-06T11:16:09;4.40;;;3.80;;
78430;SDS011;67727;50.236;22.452;2023-08-06T11:18:36;5.10;;;4.00;;
78430;SDS011;67727;50.236;22.452;2023-08-06T11:21:03;5.70;;;4.10;;
78430;SDS011;67727;50.236;22.452;2023-08-06T11:23:30;5.20;;;4.20;;
78430;SDS011;67727;50.236;22.452;2023-08-06T11:25:57;3.60;;;3.20;;
78430;SDS011;67727;50.236;22.452;2023-08-06T11:28:24;4.40;;;3.20;;
78430;SDS011;67727;50.236;22.452;2023-08-06T11:30:52;4.30;;;2.70;;
78430;SDS011;67727;50.236;22.452;2023-08-06T11:33:25;5.80;;;3.00;;
78430;SDS011;67727;50.236;22.452;2023-08-06T11:35:53;5.80;;;2.50;;
78430;SDS011;67727;50.236;22.452;2023-08-06T11:38:24;4.50;;;2.80;;
78430;SDS011;67727;50.236;22.452;2023-08-06T11:40:53;3.10;;;2.60;;
78430;SDS011;67727;50.236;22.452;2023-08-06T11:43:21;3.40;;;2.70;;
78430;SDS011;67727;50.236;22.452;2023-08-06T11:45:49;4.40;;;2.80;;
78430;SDS011;67727;50.236;22.452;2023-08-06T11:48:21;3.00;;;2.50;;
78430;SDS011;67727;50.236;22.452;2023-08-06T11:50:48;3.90;;;2.70;;
78430;SDS011;67727;50.236;22.452;2023-08-06T11:53:15;4.50;;;2.30;;
78430;SDS011;67727;50.236;22.452;2023-08-06T11:55:42;2.80;;;2.40;;
78430;SDS011;67727;50.236;22.452;2023-08-06T11:58:09;3.00;;;2.50;;
78430;SDS011;67727;50.236;22.452;2023-08-06T12:00:41;3.60;;;2.60;;
78430;SDS011;67727;50.236;22.452;2023-08-06T12:03:09;3.90;;;3.10;;
78430;SDS011;67727;50.236;22.452;2023-08-06T12:05:37;4.70;;;3.50;;
78430;SDS011;67727;50.236;22.452;2023-08-06T12:08:05;5.00;;;3.00;;
78430;SDS011;67727;50.236;22.452;2023-08-06T12:10:32;5.20;;;1.90;;
78430;SDS011;67727;50.236;22.452;2023-08-06T12:12:59;2.80;;;2.40;;
78430;SDS011;67727;50.236;22.452;2023-08-06T12:15:26;4.10;;;3.00;;
78430;SDS011;67727;50.236;22.452;2023-08-06T12:20:20;3.70;;;2.70;;
78430;SDS011;67727;50.236;22.452;2023-08-06T12:22:47;3.70;;;3.10;;
78430;SDS011;67727;50.236;22.452;2023-08-06T12:27:41;3.30;;;2.40;;
78430;SDS011;67727;50.236;22.452;2023-08-06T12:30:09;3.50;;;2.20;;
78430;SDS011;67727;50.236;22.452;2023-08-06T12:32:37;2.90;;;2.20;;
78430;SDS011;67727;50.236;22.452;2023-08-06T12:35:05;3.00;;;2.30;;
78430;SDS011;67727;50.236;22.452;2023-08-06T12:37:34;4.50;;;2.20;;
78430;SDS011;67727;50.236;22.452;2023-08-06T12:40:01;2.70;;;2.10;;
78430;SDS011;67727;50.236;22.452;2023-08-06T12:42:28;5.70;;;2.70;;
78430;SDS011;67727;50.236;22.452;2023-08-06T12:47:22;3.00;;;2.70;;
78430;SDS011;67727;50.236;22.452;2023-08-06T12:49:49;3.60;;;2.80;;
78430;SDS011;67727;50.236;22.452;2023-08-06T12:52:16;2.90;;;2.30;;
78430;SDS011;67727;50.236;22.452;2023-08-06T12:54:46;5.60;;;2.20;;
78430;SDS011;67727;50.236;22.452;2023-08-06T12:57:13;2.60;;;2.20;;
78430;SDS011;67727;50.236;22.452;2023-08-06T12:59:40;4.30;;;2.10;;
78430;SDS011;67727;50.236;22.452;2023-08-06T13:02:07;3.00;;;2.30;;
78430;SDS011;67727;50.236;22.452;2023-08-06T13:07:00;3.60;;;2.60;;
78430;SDS011;67727;50.236;22.452;2023-08-06T13:09:27;3.10;;;2.30;;
78430;SDS011;67727;50.236;22.452;2023-08-06T13:11:56;4.20;;;2.70;;
78430;SDS011;67727;50.236;22.452;2023-08-06T13:14:25;3.60;;;2.80;;
78430;SDS011;67727;50.236;22.452;2023-08-06T13:16:52;3.20;;;2.30;;
78430;SDS011;67727;50.236;22.452;2023-08-06T13:19:19;3.20;;;2.20;;
78430;SDS011;67727;50.236;22.452;2023-08-06T13:24:19;2.80;;;2.30;;
78430;SDS011;67727;50.236;22.452;2023-08-06T13:26:48;3.40;;;2.30;;
78430;SDS011;67727;50.236;22.452;2023-08-06T13:29:15;2.70;;;2.10;;
78430;SDS011;67727;50.236;22.452;2023-08-06T13:31:42;4.60;;;2.20;;
78430;SDS011;67727;50.236;22.452;2023-08-06T13:34:10;3.10;;;2.10;;
78430;SDS011;67727;50.236;22.452;2023-08-06T13:36:37;2.90;;;1.90;;
78430;SDS011;67727;50.236;22.452;2023-08-06T13:39:07;2.40;;;1.90;;
78430;SDS011;67727;50.236;22.452;2023-08-06T13:41:35;2.90;;;2.20;;
78430;SDS011;67727;50.236;22.452;2023-08-06T13:44:09;3.00;;;2.10;;
78430;SDS011;67727;50.236;22.452;2023-08-06T13:46:40;4.40;;;2.60;;
78430;SDS011;67727;50.236;22.452;2023-08-06T13:49:08;4.20;;;2.50;;
78430;SDS011;67727;50.236;22.452;2023-08-06T13:51:37;2.70;;;2.10;;
78430;SDS011;67727;50.236;22.452;2023-08-06T13:54:04;3.10;;;2.00;;
78430;SDS011;67727;50.236;22.452;2023-08-06T13:56:32;2.10;;;1.60;;
78430;SDS011;67727;50.236;22.452;2023-08-06T13:58:59;3.00;;;2.00;;
78430;SDS011;67727;50.236;22.452;2023-08-06T14:01:27;3.10;;;2.30;;
78430;SDS011;67727;50.236;22.452;2023-08-06T14:03:53;3.20;;;1.90;;
78430;SDS011;67727;50.236;22.452;2023-08-06T14:06:37;3.20;;;1.90;;
78430;SDS011;67727;50.236;22.452;2023-08-06T14:09:05;3.60;;;2.30;;
78430;SDS011;67727;50.236;22.452;2023-08-06T14:11:33;4.00;;;2.20;;
78430;SDS011;67727;50.236;22.452;2023-08-06T14:14:00;3.90;;;2.10;;
78430;SDS011;67727;50.236;22.452;2023-08-06T14:16:27;3.50;;;2.20;;
78430;SDS011;67727;50.236;22.452;2023-08-06T14:18:55;2.90;;;2.00;;
78430;SDS011;67727;50.236;22.452;2023-08-06T14:21:23;3.60;;;2.00;;
78430;SDS011;67727;50.236;22.452;2023-08-06T14:23:50;2.00;;;1.70;;
78430;SDS011;67727;50.236;22.452;2023-08-06T14:26:19;4.00;;;2.10;;
78430;SDS011;67727;50.236;22.452;2023-08-06T14:28:50;3.70;;;2.30;;
78430;SDS011;67727;50.236;22.452;2023-08-06T14:31:21;4.00;;;2.30;;
78430;SDS011;67727;50.236;22.452;2023-08-06T14:33:48;3.90;;;2.20;;
78430;SDS011;67727;50.236;22.452;2023-08-06T14:36:20;4.90;;;3.50;;
78430;SDS011;67727;50.236;22.452;2023-08-06T14:38:48;3.80;;;3.00;;
78430;SDS011;67727;50.236;22.452;2023-08-06T14:41:16;20.10;;;12.40;;
78430;SDS011;67727;50.236;22.452;2023-08-06T14:43:46;14.20;;;9.20;;
78430;SDS011;67727;50.236;22.452;2023-08-06T14:46:21;7.30;;;5.40;;
78430;SDS011;67727;50.236;22.452;2023-08-06T14:48:48;4.90;;;3.10;;
78430;SDS011;67727;50.236;22.452;2023-08-06T14:51:15;3.50;;;2.30;;
78430;SDS011;67727;50.236;22.452;2023-08-06T14:53:45;4.10;;;3.20;;
78430;SDS011;67727;50.236;22.452;2023-08-06T14:56:12;3.40;;;2.40;;
78430;SDS011;67727;50.236;22.452;2023-08-06T14:58:39;5.10;;;2.50;;
78430;SDS011;67727;50.236;22.452;2023-08-06T15:01:07;2.10;;;1.70;;
78430;SDS011;67727;50.236;22.452;2023-08-06T15:03:34;2.60;;;1.90;;
78430;SDS011;67727;50.236;22.452;2023-08-06T15:06:02;2.30;;;1.90;;
78430;SDS011;67727;50.236;22.452;2023-08-06T15:08:29;3.90;;;2.40;;
78430;SDS011;67727;50.236;22.452;2023-08-06T15:10:56;4.60;;;2.40;;
78430;SDS011;67727;50.236;22.452;2023-08-06T15:13:23;3.30;;;2.20;;
78430;SDS011;67727;50.236;22.452;2023-08-06T15:15:50;3.30;;;2.20;;
78430;SDS011;67727;50.236;22.452;2023-08-06T15:18:17;4.30;;;2.30;;
78430;SDS011;67727;50.236;22.452;2023-08-06T15:20:46;5.00;;;2.20;;
78430;SDS011;67727;50.236;22.452;2023-08-06T15:23:14;3.70;;;2.50;;
78430;SDS011;67727;50.236;22.452;2023-08-06T15:25:43;3.90;;;2.20;;
78430;SDS011;67727;50.236;22.452;2023-08-06T15:28:10;5.70;;;3.10;;
78430;SDS011;67727;50.236;22.452;2023-08-06T15:33:03;3.50;;;2.60;;
78430;SDS011;67727;50.236;22.452;2023-08-06T15:35:31;4.40;;;2.10;;